Tiempo atmosférico en la estación meteorológica de Telde, Melenara, Las Palmas (9 m.)



Fecha
DESCASC
Temp. máxima en grados centígrados (hora)
DESCASC
Temp. mínima en grados centígrados (hora)
DESCASC
Temp. media en grados centígrados
DESCASC
Racha de viento máxima en m/sg (hora)
DESCASC
Velocidad máxima media en intervalos de 10 minutos(hora)
DESCASC
Precipitaciones diarias en mm
DESCASC
Precipitaciones de 00:00 a 06:00 en mm
DESCASC
Precipitaciones de 06:00 a 12:00 en mm
DESCASC
Precipitaciones de 12:00 a 18:00 en mm
DESCASC
Precipitaciones de 18:00 a 24:00 en mm
DESCASC
30-11-2020 23.6 (14:10) 13.4 (05:30) 18.5 10 (15:30) 5.83 (15:30) 0 0 0 0 0
29-11-2020 19 (11:30) 14.3 (00:00) 16.7 6.94 (06:10) 4.17 (12:00) 5.2 0 0.6 4.6 0
28-11-2020 22.3 (12:40) 15.5 (00:00) 18.9 8.61 (13:00) 4.72 (13:10) 0 0 0 0 0
27-11-2020 21.1 (14:00) 14.7 (00:00) 17.9 12.78 (14:30) 6.94 (15:10) 1.4 1 0.4 0 0
26-11-2020 19.8 (15:50) 14.7 (00:00) 17.2 12.5 (17:50) 7.5 (02:50) 14.4 3.6 3.8 3.4 3.6
25-11-2020 24.2 (15:00) 15 (00:00) 19.6 11.11 (15:50) 6.67 (12:30) 12.4 0 0 0 12.4
24-11-2020 23.8 (12:50) 16.5 (00:00) 20.1 5.28 (14:10) 2.78 (01:20) 0 0 0 0 0
23-11-2020 24.5 (12:30) 16 (00:00) 20.3 4.72 (13:20) 2.78 (00:40) 0 0 0 0 0
22-11-2020 24.2 (13:20) 17 (00:00) 20.6 4.17 (02:10) 3.33 (04:10) 0 0 0 0 0
21-11-2020 25.5 (17:20) 15.5 (00:00) 20.5 4.44 (22:40) 3.33 (00:20) 0 0 0 0 0
20-11-2020 24.9 (13:50) 17.3 (00:00) 21.1 5.83 (01:40) 3.06 (04:30) 0 0 0 0 0
19-11-2020 23.7 (11:40) 21 (00:00) 22.4 9.72 (03:00) 6.11 (03:20) 0 0 0 0 0
18-11-2020 27.4 (15:40) 20.1 (00:00) 23.8 9.17 (16:50) 5 (18:30) 0 0 0 0 0
17-11-2020 27.3 (11:00) 19.5 (00:00) 23.4 4.72 (21:30) 3.61 (21:30) 0 0 0 0 0
16-11-2020 25.5 (14:10) 18 (00:00) 21.8 4.17 (10:30) 3.33 (07:00) 0 0 0 0 0
15-11-2020 26.8 (11:30) 18.3 (00:00) 22.5 6.11 (12:00) 3.89 (12:00) 0 0 0 0 0
14-11-2020 27.4 (14:10) 21.6 (00:00) 24.5 7.5 (05:50) 4.44 (09:00) 0 0 0 0 0
13-11-2020 24.2 (22:50) 19 (00:00) 21.6 5.56 (22:20) 3.06 (18:50) 0 0 0 0 0
12-11-2020 23.5 (15:00) 18.8 (00:00) 21.1 6.39 (00:10) 3.33 (14:40) 0 0 0 0 0
11-11-2020 23 (11:30) 20 (00:00) 21.5 7.5 (22:10) 4.72 (22:10) 0 0 0 0 0
10-11-2020 23.2 (13:40) 20.3 (00:00) 21.8 7.78 (03:20) 5 (03:30) 0 0 0 0 0
09-11-2020 23.4 (13:20) 17.4 (00:00) 20.4 7.78 (16:40) 4.44 (14:50) 0 0 0 0 0
08-11-2020 23.5 (11:50) 15.8 (00:00) 19.7 5.83 (12:10) 4.17 (12:10) 0 0 0 0 0
07-11-2020 23.6 (11:00) 17.1 (00:00) 20.4 4.72 (14:10) 2.78 (14:10) 0 0 0 0 0
06-11-2020 25.6 (12:20) 17.1 (00:00) 21.4 11.39 (16:00) 8.61 (16:00) 0 0 0 0 0
05-11-2020 23 (15:50) 15.9 (00:00) 19.4 10 (15:20) 5.28 (15:20) 0 0 0 0 0
04-11-2020 23.4 (12:50) 18.2 (00:00) 20.8 10.83 (17:10) 6.39 (17:00) 6.4 0 0 4.2 2.2
03-11-2020 24.4 (14:00) 20.5 (00:00) 22.4 8.89 (14:50) 5.83 (16:10) 0 0 0 0 0
02-11-2020 24.9 (13:30) 20 (00:00) 22.4 9.44 (13:20) 6.11 (13:50) 0 0 0 0 0

Gráficas

Temp. máximas Temp. mínimas Temp. medias Precipitaciones Rachas de viento máximas Velocidades máximas media en intervalos de 10 minutos

Datos horarios

Fecha y hora oficial Temperatura (ºC) Velocidad del viento (km/h) Dirección del viento Racha (km/h) Dirección de racha Precipitación (mm) Presión (hPa) Tendencia (hPa) Humedad (%)
2020-12-01 23:00:00 17.5 3 Sudoeste 12 Noroeste 0 -- -- 75
2020-12-01 22:00:00 18.2 6 Oeste 13 Sudoeste 0 -- -- 74
2020-12-01 21:00:00 18.9 4 Sudoeste 15 Sur 0 -- -- 72
2020-12-01 20:00:00 19 3 Noroeste 9 Noroeste 0 -- -- 72
2020-12-01 19:00:00 19.8 3 Oeste 10 Sur 0 -- -- 65
2020-12-01 18:00:00 21.5 2 Oeste 24 Sudoeste 0 -- -- 64
2020-12-01 17:00:00 21.9 14 Sudoeste 30 Sur 0 -- -- 58
2020-12-01 16:00:00 22.4 12 Sur 37 Sudoeste 0 -- -- 60
2020-12-01 15:00:00 22.8 18 Sudoeste 36 Sudoeste 0 -- -- 56
2020-12-01 14:00:00 23.3 20 Sur 38 Sur 0 -- -- 50
2020-12-01 13:00:00 24.1 14 Sur 29 Sudoeste 0 -- -- 53
2020-12-01 12:00:00 23.2 19 Sur 35 Sudoeste 0 -- -- 54
2020-12-01 11:00:00 23 14 Sur 31 Sudoeste 0 -- -- 53
2020-12-01 10:00:00 22.1 8 Sur 22 Sur 0 -- -- 61
2020-12-01 09:00:00 20.1 10 Sur 21 Sur 0 -- -- 67
2020-12-01 08:00:00 17.4 4 Sudoeste 22 Sur 0 -- -- 69
2020-12-01 07:00:00 17.6 6 Sudoeste 18 Sur 0 -- -- 76
2020-12-01 06:00:00 17.2 5 Sudoeste 21 Sudoeste 0 -- -- 73
2020-12-01 05:00:00 17.9 9 Sudoeste 19 Sur 0 -- -- 82
2020-12-01 04:00:00 18 9 Sudoeste 28 Sudoeste 0 -- -- 81
2020-12-01 03:00:00 18.5 11 Sudoeste 26 Sur 0 -- -- 76
2020-12-01 02:00:00 18.4 4 Sur 14 Sudoeste 0 -- -- 76
2020-12-01 01:00:00 18.2 3 Sudeste 19 Sudoeste 0 -- -- 75
2020-12-01 00:00:00 18.6 10 Sudoeste 22 Sudoeste 0 -- -- 70
2020-11-30 23:00:00 18.5 9 Sudoeste 27 Sudoeste 0 -- -- 75
2020-11-30 22:00:00 18.4 5 Sur 26 Sur 0 -- -- 76
2020-11-30 21:00:00 18.7 10 Sur 25 Sur 0 -- -- 73
2020-11-30 20:00:00 19.2 6 Sur 22 Sur 0 -- -- 70
2020-11-30 19:00:00 19.4 9 Sur 30 Sur 0 -- -- 65
2020-11-30 18:00:00 19.9 13 Oeste 30 Sudoeste 0 -- -- 62
2020-11-30 17:00:00 21.1 19 Sur 35 Sudoeste 0 -- -- 59
2020-11-30 16:00:00 23.1 19 Sudoeste 36 Sudoeste 0 -- -- 49
2020-11-30 15:00:00 23.5 19 Sur 34 Sur 0 -- -- 49
2020-11-30 14:00:00 23.3 19 Sur 36 Sudoeste 0 -- -- 50
2020-11-30 13:00:00 22.2 12 Sudoeste 26 Sur 0 -- -- 55
2020-11-30 12:00:00 21.3 6 Nordeste 15 Nordeste 0 -- -- 55
2020-11-30 11:00:00 21.6 6 Oeste 13 Sudoeste 0 -- -- 53
2020-11-30 10:00:00 20.1 8 Sudoeste 17 Sur 0 -- -- 65
2020-11-30 09:00:00 17 3 Sudoeste 8 Oeste 0 -- -- 77
2020-11-30 08:00:00 14 3 Sudoeste 13 Oeste 0 -- -- 81
2020-11-30 07:00:00 13.9 4 Oeste 13 Oeste 0 -- -- 83
2020-11-30 06:00:00 13.5 4 Oeste 8 Oeste 0 -- -- 87
2020-11-30 05:00:00 13.8 5 Sudoeste 11 Sudoeste 0 -- -- 88
2020-11-30 04:00:00 14.6 6 Oeste 17 Sudoeste 0 -- -- 86
2020-11-30 03:00:00 14.6 4 Noroeste 15 Noroeste 0 -- -- 86
2020-11-30 02:00:00 15.3 6 Oeste 15 Noroeste 0 -- -- 85
2020-11-30 01:00:00 14 8 Noroeste 11 Noroeste 0 -- -- 87
2020-11-30 00:00:00 14.3 3 Noroeste 10 Oeste 0 -- -- 85
2020-11-29 23:00:00 14.9 7 Oeste 10 Noroeste 0 -- -- 85
2020-11-29 22:00:00 17.3 2 Nordeste 9 Este 0 -- -- 86
2020-11-29 21:00:00 17.1 0 Calma 8 Oeste 0 -- -- 88
2020-11-29 20:00:00 17.1 3 Noroeste 12 Noroeste 0 -- -- 87
2020-11-29 19:00:00 17.2 4 Sudoeste 10 Sudoeste 0 -- -- 86
2020-11-29 18:00:00 17.3 5 Sudoeste 12 Sudeste 0 -- -- 85
2020-11-29 17:00:00 17.1 0 Calma 7 Este 0 -- -- 85
2020-11-29 16:00:00 16.8 3 Este 6 Este 1.4 -- -- 85
2020-11-29 15:00:00 16.6 3 Sur 6 Sur 3.2 -- -- 84
2020-11-29 14:00:00 17.5 4 Norte 15 Norte 0 -- -- 78
2020-11-29 13:00:00 18.1 5 Noroeste 22 Norte 0 -- -- 74
2020-11-29 12:00:00 18.3 15 Norte 23 Norte 0 -- -- 77
2020-11-29 11:00:00 18.6 5 Norte 10 Norte 0 -- -- 75
2020-11-29 10:00:00 17.9 5 Norte 16 Noroeste 0 -- -- 80
2020-11-29 09:00:00 16.2 10 Oeste 16 Oeste 0.4 -- -- 87
2020-11-29 08:00:00 16.1 10 Noroeste 22 Norte 0.2 -- -- 88
2020-11-29 07:00:00 16.4 12 Noroeste 25 Norte 0 -- -- 87
2020-11-29 06:00:00 16.5 10 Noroeste 21 Noroeste 0 -- -- 87
2020-11-29 05:00:00 15.4 7 Oeste 17 Oeste 0 -- -- 75
2020-11-29 04:00:00 15.7 12 Oeste 15 Oeste 0 -- -- 76
2020-11-29 03:00:00 15.8 11 Oeste 15 Oeste 0 -- -- 75
2020-11-29 02:00:00 16 9 Oeste 16 Oeste 0 -- -- 77
2020-11-29 01:00:00 16.1 10 Oeste 15 Oeste 0 -- -- 79
2020-11-29 00:00:00 15.7 8 Oeste 12 Noroeste 0 -- -- 81
2020-11-28 23:00:00 16.1 8 Noroeste 12 Oeste 0 -- -- 83
2020-11-28 22:00:00 17.3 0 Calma 8 Sudoeste 0 -- -- 81
2020-11-28 21:00:00 18 6 Oeste 9 Oeste 0 -- -- 80
2020-11-28 20:00:00 17.8 3 Oeste 6 Oeste 0 -- -- 79
2020-11-28 19:00:00 19.1 3 Noroeste 12 Noroeste 0 -- -- 74
2020-11-28 18:00:00 19.9 9 Norte 18 Norte 0 -- -- 72
2020-11-28 17:00:00 20.7 7 Nordeste 12 Este 0 -- -- 66
2020-11-28 16:00:00 21.1 4 Este 9 Este 0 -- -- 63
2020-11-28 15:00:00 20.5 4 Nordeste 10 Oeste 0 -- -- 67
2020-11-28 14:00:00 20.4 3 Norte 30 Noroeste 0 -- -- 68
2020-11-28 13:00:00 21.2 16 Norte 31 Noroeste 0 -- -- 64
2020-11-28 12:00:00 20.8 10 Oeste 23 Oeste 0 -- -- 63
2020-11-28 11:00:00 20 11 Noroeste 22 Oeste 0 -- -- 67
2020-11-28 10:00:00 18.7 13 Oeste 25 Oeste 0 -- -- 73
2020-11-28 09:00:00 18 4 Sudoeste 17 Oeste 0 -- -- 74
2020-11-28 08:00:00 16.2 10 Oeste 12 Oeste 0 -- -- 77
2020-11-28 07:00:00 16.1 8 Oeste 11 Oeste 0 -- -- 78
2020-11-28 06:00:00 17 7 Oeste 11 Oeste 0 -- -- 75
2020-11-28 05:00:00 17 3 Oeste 15 Oeste 0 -- -- 79
2020-11-28 04:00:00 16.4 6 Oeste 14 Oeste 0 -- -- 78
2020-11-28 03:00:00 17.7 11 Oeste 18 Noroeste 0 -- -- 75
2020-11-28 02:00:00 16.9 5 Noroeste 18 Oeste 0 -- -- 80
2020-11-28 01:00:00 16.3 8 Oeste 11 Oeste 0 -- -- 76
2020-11-28 00:00:00 17.4 7 Oeste 21 Oeste 0 -- -- 74
2020-11-27 23:00:00 17.4 8 Oeste 31 Noroeste 0 -- -- 74
2020-11-27 22:00:00 18.3 11 Noroeste 23 Noroeste 0 -- -- 66
2020-11-27 21:00:00 18.5 12 Noroeste 24 Noroeste 0 -- -- 71
2020-11-27 20:00:00 18.6 13 Noroeste 24 Noroeste 0 -- -- 65
2020-11-27 19:00:00 18.4 12 Noroeste 20 Oeste 0 -- -- 65
2020-11-27 18:00:00 18.9 13 Noroeste 25 Noroeste 0 -- -- 62
2020-11-27 17:00:00 19.3 15 Noroeste 38 Noroeste 0 -- -- 62
2020-11-27 16:00:00 21.1 19 Noroeste 43 Noroeste 0 -- -- 52
2020-11-27 15:00:00 21 22 Noroeste 46 Norte 0 -- -- 53
2020-11-27 14:00:00 21.1 21 Noroeste 38 Noroeste 0 -- -- 52
2020-11-27 13:00:00 20.7 22 Noroeste 40 Oeste 0 -- -- 56
2020-11-27 12:00:00 20 23 Noroeste 45 Noroeste 0 -- -- 57
2020-11-27 11:00:00 18.3 24 Noroeste 41 Noroeste 0 -- -- 62
2020-11-27 10:00:00 18.2 17 Noroeste 32 Noroeste 0 -- -- 61
2020-11-27 09:00:00 17.6 12 Noroeste 29 Noroeste 0 -- -- 63
2020-11-27 08:00:00 15.7 13 Noroeste 24 Noroeste 0 -- -- 72
2020-11-27 07:00:00 14.7 8 Oeste 33 Noroeste 0.4 -- -- 78
2020-11-27 06:00:00 14.8 6 Noroeste 24 Noroeste 0.4 -- -- 76
2020-11-27 05:00:00 15.6 8 Oeste 19 Noroeste 0 -- -- 71
2020-11-27 04:00:00 15.7 12 Oeste 31 Oeste 0.2 -- -- 70
2020-11-27 03:00:00 16.4 14 Noroeste 30 Oeste 0 -- -- 67
2020-11-27 02:00:00 15.8 11 Noroeste 23 Oeste 0.4 -- -- 73
2020-11-27 01:00:00 15.3 4 Oeste 21 Noroeste 0 -- -- 77
2020-11-27 00:00:00 16.3 9 Noroeste 26 Noroeste 0 -- -- 67
2020-11-26 23:00:00 15.7 6 Noroeste 33 Noroeste 1.8 -- -- 74
2020-11-26 22:00:00 16 15 Norte 40 Noroeste 0.6 -- -- 73
2020-11-26 21:00:00 17.2 13 Noroeste 41 Noroeste 0 -- -- 65
2020-11-26 20:00:00 17.4 13 Noroeste 34 Noroeste 0.2 -- -- 67
2020-11-26 19:00:00 16.7 14 Noroeste 32 Noroeste 1 -- -- 73
2020-11-26 18:00:00 17.7 17 Noroeste 45 Noroeste 0 -- -- 63
2020-11-26 17:00:00 17.2 12 Noroeste 42 Noroeste 1.6 -- -- 77
2020-11-26 16:00:00 19.6 15 Noroeste 35 Noroeste 0 -- -- 62
2020-11-26 15:00:00 19 18 Noroeste 35 Oeste 0 -- -- 63
2020-11-26 14:00:00 16.7 14 Noroeste 29 Norte 1.2 -- -- 81
2020-11-26 13:00:00 17.3 16 Oeste 36 Noroeste 0.6 -- -- 73
2020-11-26 12:00:00 17.2 10 Noroeste 32 Noroeste 0 -- -- 75
2020-11-26 11:00:00 17.8 12 Noroeste 24 Noroeste 0.4 -- -- 66
2020-11-26 10:00:00 18.2 12 Noroeste 30 Noroeste 0.4 -- -- 65
2020-11-26 09:00:00 16.7 9 Noroeste 28 Noroeste 2.4 -- -- 77
2020-11-26 08:00:00 15.8 8 Oeste 23 Noroeste 0.6 -- -- 80
2020-11-26 07:00:00 15.6 16 Oeste 34 Noroeste 0 -- -- 76
2020-11-26 06:00:00 15.2 14 Noroeste 28 Noroeste 0.2 -- -- 80
2020-11-26 05:00:00 15.2 19 Noroeste 33 Noroeste 1.8 -- -- 79
2020-11-26 04:00:00 15.8 15 Noroeste 35 Noroeste 0 -- -- 77
2020-11-26 03:00:00 15.6 21 Noroeste 44 Noroeste 0 -- -- 79
2020-11-26 02:00:00 15.7 20 Noroeste 40 Noroeste 0.6 -- -- 81
2020-11-26 01:00:00 16.2 21 Noroeste 34 Noroeste 1 -- -- 78
2020-11-26 00:00:00 16.6 17 Noroeste 27 Noroeste 0 -- -- 74
2020-11-25 23:00:00 17 16 Noroeste 33 Noroeste 0.4 -- -- 78
2020-11-25 22:00:00 17.4 12 Noroeste 26 Noroeste 0.6 -- -- 82
2020-11-25 21:00:00 17.5 10 Noroeste 26 Noroeste 0.6 -- -- 85
2020-11-25 20:00:00 18 13 Noroeste 27 Oeste 3 -- -- 85
2020-11-25 19:00:00 18.2 11 Noroeste 36 Norte 7.8 -- -- 86
2020-11-25 18:00:00 21.2 20 Noroeste 38 Noroeste 0 -- -- 69
2020-11-25 17:00:00 22.3 21 Noroeste 35 Norte 0 -- -- 53
2020-11-25 16:00:00 23.1 23 Noroeste 40 Norte 0 -- -- 54
2020-11-25 15:00:00 24.2 16 Norte 30 Norte 0 -- -- 47
2020-11-25 14:00:00 23.1 18 Norte 38 Norte 0 -- -- 61
2020-11-25 13:00:00 23.6 22 Norte 37 Noroeste 0 -- -- 58
2020-11-25 12:00:00 23.2 18 Norte 30 Nordeste 0 -- -- 63
2020-11-25 11:00:00 22.5 17 Norte 29 Norte 0 -- -- 67
2020-11-25 10:00:00 22.6 17 Norte 31 Noroeste 0 -- -- 65
2020-11-25 09:00:00 21.2 15 Noroeste 26 Noroeste 0 -- -- 70
2020-11-25 08:00:00 19 9 Noroeste 17 Noroeste 0 -- -- 74
2020-11-25 07:00:00 18.9 10 Noroeste 16 Noroeste 0 -- -- 73
2020-11-25 06:00:00 17.1 10 Noroeste 13 Noroeste 0 -- -- 56
2020-11-25 05:00:00 15.3 7 Noroeste 11 Noroeste 0 -- -- 39
2020-11-25 04:00:00 15.6 8 Noroeste 12 Noroeste 0 -- -- 36
2020-11-25 03:00:00 15.7 8 Oeste 12 Oeste 0 -- -- 37
2020-11-25 02:00:00 16.1 8 Noroeste 12 Oeste 0 -- -- 38
2020-11-25 01:00:00 17 8 Noroeste 13 Oeste 0 -- -- 36
2020-11-25 00:00:00 17.1 7 Noroeste 13 Noroeste 0 -- -- 37
2020-11-24 23:00:00 17.5 10 Oeste 12 Oeste 0 -- -- 39
2020-11-24 22:00:00 17.8 5 Noroeste 10 Oeste 0 -- -- 55
2020-11-24 21:00:00 18.6 4 Oeste 10 Oeste 0 -- -- 65
2020-11-24 20:00:00 19.2 0 Calma 4 Oeste 0 -- -- 65
2020-11-24 19:00:00 21.6 0 Calma 6 Este 0 -- -- 57
2020-11-24 18:00:00 22.1 3 Este 8 Este 0 -- -- 55
2020-11-24 17:00:00 22.5 5 Este 13 Este 0 -- -- 55
2020-11-24 16:00:00 23.1 8 Sudeste 17 Sudeste 0 -- -- 54
2020-11-24 15:00:00 23.3 8 Este 19 Este 0 -- -- 55
2020-11-24 14:00:00 23.2 9 Sudeste 18 Sudeste 0 -- -- 60
2020-11-24 13:00:00 23.8 7 Sudeste 17 Sudeste 0 -- -- 57
2020-11-24 12:00:00 23.1 8 Sudeste 16 Sur 0 -- -- 61
2020-11-24 11:00:00 22.8 8 Sudeste 14 Sudeste 0 -- -- 62
2020-11-24 10:00:00 22.8 8 Sudeste 15 Sudeste 0 -- -- 66
2020-11-24 09:00:00 20.5 4 Sur 9 Sudeste 0 -- -- 70
2020-11-24 08:00:00 18.3 2 Sudoeste 6 Sudoeste 0 -- -- 73
2020-11-24 07:00:00 17.4 4 Oeste 6 Sudoeste 0 -- -- 77
2020-11-24 06:00:00 16.6 2 Oeste 5 Sudoeste 0 -- -- 71
2020-11-24 05:00:00 17.4 3 Sudoeste 6 Sudoeste 0 -- -- 64
2020-11-24 04:00:00 19.4 4 Sudoeste 12 Sudeste 0 -- -- 55
2020-11-24 03:00:00 17.4 5 Oeste 13 Oeste 0 -- -- 46
2020-11-24 02:00:00 17.8 8 Noroeste 16 Oeste 0 -- -- 40
2020-11-24 01:00:00 17.7 6 Noroeste 13 Oeste 0 -- -- 42
2020-11-24 00:00:00 17.5 6 Oeste 12 Oeste 0 -- -- 54
2020-11-23 23:00:00 17.3 6 Noroeste 11 Oeste 0 -- -- 57
2020-11-23 22:00:00 17.1 4 Oeste 9 Oeste 0 -- -- 67
2020-11-23 21:00:00 17.6 4 Noroeste 8 Noroeste 0 -- -- 64
2020-11-23 20:00:00 18.6 4 Oeste 5 Noroeste 0 -- -- 71
2020-11-23 19:00:00 20.6 0 Calma 5 Este 0 -- -- 65
2020-11-23 18:00:00 22.1 3 Este 8 Sudeste 0 -- -- 60
2020-11-23 17:00:00 23 5 Sudeste 15 Sudeste 0 -- -- 56
2020-11-23 16:00:00 23 6 Sudeste 14 Sudeste 0 -- -- 61
2020-11-23 15:00:00 24 6 Sudeste 17 Sudeste 0 -- -- 57
2020-11-23 14:00:00 23.7 7 Sudeste 17 Sudeste 0 -- -- 62
2020-11-23 13:00:00 24.4 8 Sudeste 16 Sur 0 -- -- 58
2020-11-23 12:00:00 24.2 9 Sudeste 17 Sudeste 0 -- -- 56
2020-11-23 11:00:00 24.1 5 Sudeste 13 Sur 0 -- -- 60
2020-11-23 10:00:00 23.5 5 Sur 11 Sur 0 -- -- 66
2020-11-23 09:00:00 21.7 4 Sur 7 Sudoeste 0 -- -- 72
2020-11-23 08:00:00 18.3 4 Sudoeste 8 Sudoeste 0 -- -- 74
2020-11-23 07:00:00 18.5 4 Sur 9 Sur 0 -- -- 72
2020-11-23 06:00:00 16 3 Sudoeste 13 Oeste 0 -- -- 67
2020-11-23 05:00:00 16.7 9 Oeste 13 Oeste 0 -- -- 61
2020-11-23 04:00:00 16.7 7 Noroeste 14 Oeste 0 -- -- 51
2020-11-23 03:00:00 17.2 6 Oeste 11 Noroeste 0 -- -- 50
2020-11-23 02:00:00 18.1 8 Oeste 13 Oeste 0 -- -- 47
2020-11-23 01:00:00 18.2 8 Oeste 12 Oeste 0 -- -- 52
2020-11-23 00:00:00 20.1 6 Noroeste 15 Noroeste 0 -- -- 72
2020-11-22 23:00:00 19.8 7 Noroeste 10 Noroeste 0 -- -- 54
2020-11-22 22:00:00 19.9 7 Noroeste 10 Oeste 0 -- -- 69
2020-11-22 21:00:00 19.9 6 Noroeste 8 Oeste 0 -- -- 73
2020-11-22 20:00:00 20.3 3 Norte 6 Norte 0 -- -- 76
2020-11-22 19:00:00 19.9 4 Noroeste 5 Noroeste 0 -- -- 74
2020-11-22 18:00:00 22.1 2 Este 8 Este 0 -- -- 69
2020-11-22 17:00:00 22.6 4 Este 12 Este 0 -- -- 69
2020-11-22 16:00:00 23 6 Este 11 Este 0 -- -- 68
2020-11-22 15:00:00 23.2 8 Este 11 Este 0 -- -- 67
2020-11-22 14:00:00 23.8 6 Este 14 Sudeste 0 -- -- 65
2020-11-22 13:00:00 23.8 6 Sudeste 13 Este 0 -- -- 64
2020-11-22 12:00:00 23.9 8 Este 14 Este 0 -- -- 62
2020-11-22 11:00:00 23.7 6 Sudeste 12 Sur 0 -- -- 61
2020-11-22 10:00:00 23.2 3 Sudeste 7 Norte 0 -- -- 62
2020-11-22 09:00:00 21.6 3 Noroeste 12 Oeste 0 -- -- 62
2020-11-22 08:00:00 18 10 Oeste 13 Oeste 0 -- -- 53
2020-11-22 07:00:00 17.1 8 Oeste 13 Oeste 0 -- -- 54
2020-11-22 06:00:00 17.1 9 Oeste 12 Noroeste 0 -- -- 54
2020-11-22 05:00:00 17.6 8 Noroeste 14 Oeste 0 -- -- 51
2020-11-22 04:00:00 17.6 9 Oeste 13 Oeste 0 -- -- 50
2020-11-22 03:00:00 18.1 7 Noroeste 15 Oeste 0 -- -- 49
2020-11-22 02:00:00 18.3 10 Oeste 13 Oeste 0 -- -- 48
2020-11-22 01:00:00 18.5 7 Oeste 13 Oeste 0 -- -- 50
2020-11-22 00:00:00 19.8 8 Noroeste 13 Noroeste 0 -- -- 53
2020-11-21 23:00:00 19.9 6 Noroeste 16 Oeste 0 -- -- 48
2020-11-21 22:00:00 20 7 Noroeste 15 Noroeste 0 -- -- 43
2020-11-21 21:00:00 19.4 5 Noroeste 11 Oeste 0 -- -- 42
2020-11-21 20:00:00 19.2 8 Oeste 11 Oeste 0 -- -- 42
2020-11-21 19:00:00 21.8 2 Sudoeste 11 Sudoeste 0 -- -- 39
2020-11-21 18:00:00 24.1 5 Sur 12 Sudoeste 0 -- -- 30
2020-11-21 17:00:00 25.3 4 Sudeste 13 Sur 0 -- -- 30
2020-11-21 16:00:00 24.9 5 Sudeste 9 Sur 0 -- -- 38
2020-11-21 15:00:00 24.7 5 Sudeste 10 Sudeste 0 -- -- 51
2020-11-21 14:00:00 24.8 5 Sudeste 10 Sudeste 0 -- -- 44
2020-11-21 13:00:00 24.5 5 Sudeste 9 Este 0 -- -- 54
2020-11-21 12:00:00 24.6 6 Sudeste 12 Sudeste 0 -- -- 54
2020-11-21 11:00:00 24.4 5 Sudeste 10 Sudeste 0 -- -- 54
2020-11-21 10:00:00 23.5 4 Sur 9 Sur 0 -- -- 62
2020-11-21 09:00:00 20.7 4 Sur 6 Sudoeste 0 -- -- 69
2020-11-21 08:00:00 16.8 5 Sudoeste 8 Sudoeste 0 -- -- 76
2020-11-21 07:00:00 15.6 4 Sudoeste 7 Sudoeste 0 -- -- 77
2020-11-21 06:00:00 16.3 3 Sudoeste 11 Oeste 0 -- -- 75
2020-11-21 05:00:00 16.6 6 Oeste 9 Noroeste 0 -- -- 75
2020-11-21 04:00:00 16.5 3 Oeste 8 Oeste 0 -- -- 69
2020-11-21 03:00:00 17.6 2 Oeste 6 Oeste 0 -- -- 67
2020-11-21 02:00:00 18.3 2 Noroeste 12 Oeste 0 -- -- 53
2020-11-21 01:00:00 18.8 8 Noroeste 15 Oeste 0 -- -- 39
2020-11-21 00:00:00 18.5 11 Oeste 13 Oeste 0 -- -- 55
2020-11-20 23:00:00 17.9 3 Noroeste 9 Oeste 0 -- -- 48
2020-11-20 22:00:00 19.5 4 Noroeste 8 Noroeste 0 -- -- 47
2020-11-20 21:00:00 19.1 3 Noroeste 9 Oeste 0 -- -- 48
2020-11-20 20:00:00 19.6 6 Oeste 10 Oeste 0 -- -- 68
2020-11-20 19:00:00 20.5 0 Calma 9 Este 0 -- -- 66
2020-11-20 18:00:00 22.5 5 Este 12 Nordeste 0 -- -- 64
2020-11-20 17:00:00 23.7 6 Este 12 Sudeste 0 -- -- 63
2020-11-20 16:00:00 24.6 8 Sudeste 14 Sudeste 0 -- -- 47
2020-11-20 15:00:00 24.8 7 Sudeste 17 Sudeste 0 -- -- 50
2020-11-20 14:00:00 24.9 8 Sur 19 Sur 0 -- -- 47
2020-11-20 13:00:00 24.4 8 Sudeste 15 Sudeste 0 -- -- 58
2020-11-20 12:00:00 24.4 8 Sudeste 18 Sur 0 -- -- 58
2020-11-20 11:00:00 24 6 Sur 18 Sur 0 -- -- 62
2020-11-20 10:00:00 23.4 5 Sudeste 12 Sur 0 -- -- 63
2020-11-20 09:00:00 21.1 3 Sur 9 Sur 0 -- -- 72
2020-11-20 08:00:00 17.4 3 Noroeste 8 Oeste 0 -- -- 82
2020-11-20 07:00:00 18.2 2 Oeste 9 Noroeste 0 -- -- 79
2020-11-20 06:00:00 20 4 Noroeste 13 Norte 0 -- -- 76
2020-11-20 05:00:00 20.9 8 Nordeste 19 Nordeste 0 -- -- 75
2020-11-20 04:00:00 20.9 8 Norte 19 Norte 0 -- -- 76
2020-11-20 03:00:00 21 10 Norte 19 Norte 0 -- -- 75
2020-11-20 02:00:00 21.1 9 Norte 21 Norte 0 -- -- 78
2020-11-20 01:00:00 21.2 9 Norte 19 Norte 0 -- -- 79
2020-11-20 00:00:00 21.3 12 Norte 19 Norte 0 -- -- 77
2020-11-19 23:00:00 21.3 11 Norte 19 Norte 0 -- -- 80
2020-11-19 22:00:00 21.1 10 Norte 16 Norte 0 -- -- 79
2020-11-19 21:00:00 21.4 9 Norte 15 Norte 0 -- -- 78
2020-11-19 20:00:00 21.5 8 Norte 15 Nordeste 0 -- -- 76
2020-11-19 19:00:00 21.5 10 Norte 14 Nordeste 0 -- -- 76
2020-11-19 18:00:00 21.8 8 Norte 18 Norte 0 -- -- 73
2020-11-19 17:00:00 22 13 Nordeste 21 Nordeste 0 -- -- 72
2020-11-19 16:00:00 22.8 15 Nordeste 24 Nordeste 0 -- -- 70
2020-11-19 15:00:00 23.2 14 Norte 25 Nordeste 0 -- -- 69
2020-11-19 14:00:00 23.1 17 Nordeste 26 Norte 0 -- -- 69
2020-11-19 13:00:00 23.2 18 Nordeste 32 Nordeste 0 -- -- 69
2020-11-19 12:00:00 23.6 17 Norte 31 Norte 0 -- -- 70
2020-11-19 11:00:00 23.5 15 Norte 29 Norte 0 -- -- 71
2020-11-19 10:00:00 22.9 17 Norte 30 Noroeste 0 -- -- 72
2020-11-19 09:00:00 22.2 16 Norte 31 Norte 0 -- -- 75
2020-11-19 08:00:00 21.2 13 Norte 29 Norte 0 -- -- 78
2020-11-19 07:00:00 21.2 19 Norte 31 Norte 0 -- -- 76
2020-11-19 06:00:00 21.3 16 Norte 29 Noroeste 0 -- -- 77
2020-11-19 05:00:00 21.1 13 Norte 28 Norte 0 -- -- 76
2020-11-19 04:00:00 21.1 16 Norte 34 Norte 0 -- -- 76
2020-11-19 03:00:00 21.2 19 Norte 35 Norte 0 -- -- 78
2020-11-19 02:00:00 21.1 14 Norte 29 Norte 0 -- -- 78
2020-11-19 01:00:00 21.3 14 Noroeste 31 Noroeste 0 -- -- 77
2020-11-19 00:00:00 21.5 14 Noroeste 30 Noroeste 0 -- -- 72
2020-11-18 23:00:00 22 13 Noroeste 26 Noroeste 0 -- -- 65
2020-11-18 22:00:00 22.5 12 Noroeste 28 Norte 0 -- -- 52
2020-11-18 21:00:00 22.4 14 Norte 33 Noroeste 0 -- -- 70
2020-11-18 20:00:00 22.9 15 Noroeste 28 Noroeste 0 -- -- 68
2020-11-18 19:00:00 24.2 14 Norte 28 Norte 0 -- -- 45
2020-11-18 18:00:00 25.2 17 Norte 29 Norte 0 -- -- 36
2020-11-18 17:00:00 26 14 Norte 33 Norte 0 -- -- 49
2020-11-18 16:00:00 27.1 14 Norte 31 Norte 0 -- -- 44
2020-11-18 15:00:00 27.1 14 Norte 24 Norte 0 -- -- 52
2020-11-18 14:00:00 27.1 12 Norte 19 Norte 0 -- -- 44
2020-11-18 13:00:00 26.8 10 Nordeste 14 Nordeste 0 -- -- 46
2020-11-18 12:00:00 26.8 9 Nordeste 14 Nordeste 0 -- -- 42
2020-11-18 11:00:00 27 8 Norte 14 Norte 0 -- -- 36
2020-11-18 10:00:00 26.2 5 Norte 11 Norte 0 -- -- 38
2020-11-18 09:00:00 23.7 2 Norte 9 Noroeste 0 -- -- 42
2020-11-18 08:00:00 20.6 5 Noroeste 14 Noroeste 0 -- -- 40
2020-11-18 07:00:00 20.1 6 Noroeste 17 Oeste 0 -- -- 39
2020-11-18 06:00:00 21.6 13 Oeste 17 Oeste 0 -- -- 34
2020-11-18 05:00:00 21.2 12 Oeste 17 Oeste 0 -- -- 36
2020-11-18 04:00:00 20.5 11 Oeste 14 Oeste 0 -- -- 39
2020-11-18 03:00:00 20.4 6 Noroeste 14 Oeste 0 -- -- 40
2020-11-18 02:00:00 21 8 Noroeste 11 Noroeste 0 -- -- 43
2020-11-18 01:00:00 22.2 8 Noroeste 15 Norte 0 -- -- 43
2020-11-18 00:00:00 21.5 9 Noroeste 14 Noroeste 0 -- -- 64
2020-11-17 23:00:00 22.4 8 Noroeste 17 Norte 0 -- -- 64
2020-11-17 22:00:00 23.3 8 Noroeste 17 Oeste 0 -- -- 33
2020-11-17 21:00:00 22.8 10 Noroeste 13 Oeste 0 -- -- 36
2020-11-17 20:00:00 22.3 8 Noroeste 13 Oeste 0 -- -- 42
2020-11-17 19:00:00 22.8 4 Noroeste 7 Noroeste 0 -- -- 46
2020-11-17 18:00:00 25.1 0 Calma 6 Sur 0 -- -- 45
2020-11-17 17:00:00 26 3 Sudeste 9 Sur 0 -- -- 45
2020-11-17 16:00:00 25.7 5 Sudeste 9 Sudeste 0 -- -- 53
2020-11-17 15:00:00 25.9 6 Sudeste 13 Sudeste 0 -- -- 59
2020-11-17 14:00:00 26.2 7 Sudeste 13 Sudeste 0 -- -- 59
2020-11-17 13:00:00 26.5 6 Sudeste 13 Sudeste 0 -- -- 54
2020-11-17 12:00:00 26.8 6 Sudeste 10 Sur 0 -- -- 48
2020-11-17 11:00:00 27.3 4 Sudeste 9 Sudeste 0 -- -- 43
2020-11-17 10:00:00 26.3 3 Sudeste 8 Sur 0 -- -- 42
2020-11-17 09:00:00 23.4 0 Calma 6 Sudeste 0 -- -- 52
2020-11-17 08:00:00 21 3 Sudeste 9 Sudoeste 0 -- -- 57
2020-11-17 07:00:00 21.4 6 Oeste 11 Oeste 0 -- -- 46
2020-11-17 06:00:00 19.7 3 Sudoeste 6 Sudoeste 0 -- -- 60
2020-11-17 05:00:00 20.2 2 Oeste 10 Oeste 0 -- -- 55
2020-11-17 04:00:00 19.5 4 Noroeste 10 Oeste 0 -- -- 61
2020-11-17 03:00:00 19.8 10 Oeste 12 Oeste 0 -- -- 72
2020-11-17 02:00:00 19.7 5 Noroeste 10 Oeste 0 -- -- 77
2020-11-17 01:00:00 21 5 Oeste 9 Noroeste 0 -- -- 80
2020-11-17 00:00:00 21.4 4 Noroeste 11 Norte 0 -- -- 84
2020-11-16 23:00:00 21.5 7 Norte 13 Norte 0 -- -- 84
2020-11-16 22:00:00 20.7 4 Norte 11 Noroeste 0 -- -- 75
2020-11-16 21:00:00 20.6 5 Noroeste 8 Noroeste 0 -- -- 85
2020-11-16 20:00:00 20.7 4 Noroeste 5 Noroeste 0 -- -- 82
2020-11-16 19:00:00 21.6 4 Noroeste 5 Noroeste 0 -- -- 78
2020-11-16 18:00:00 23.4 3 Norte 9 Nordeste 0 -- -- 71
2020-11-16 17:00:00 24 4 Este 9 Este 0 -- -- 74
2020-11-16 16:00:00 24.4 6 Este 13 Este 0 -- -- 70
2020-11-16 15:00:00 25.2 8 Este 14 Nordeste 0 -- -- 61
2020-11-16 14:00:00 25.3 6 Este 10 Este 0 -- -- 59
2020-11-16 13:00:00 24.9 6 Este 12 Este 0 -- -- 68
2020-11-16 12:00:00 24.5 4 Nordeste 12 Norte 0 -- -- 72
2020-11-16 11:00:00 24.5 6 Nordeste 15 Este 0 -- -- 68
2020-11-16 10:00:00 23.9 4 Norte 12 Noroeste 0 -- -- 59
2020-11-16 09:00:00 22.1 5 Oeste 10 Oeste 0 -- -- 66
2020-11-16 08:00:00 18.8 9 Oeste 12 Oeste 0 -- -- 68
2020-11-16 07:00:00 18.3 12 Oeste 14 Oeste 0 -- -- 74
2020-11-16 06:00:00 18.5 5 Noroeste 13 Oeste 0 -- -- 75
2020-11-16 05:00:00 19.5 8 Oeste 10 Oeste 0 -- -- 82
2020-11-16 04:00:00 20.2 5 Noroeste 10 Noroeste 0 -- -- 85
2020-11-16 03:00:00 20.7 7 Noroeste 12 Noroeste 0 -- -- 86
2020-11-16 02:00:00 20.8 8 Noroeste 14 Noroeste 0 -- -- 85
2020-11-16 01:00:00 20 8 Noroeste 11 Noroeste 0 -- -- 84
2020-11-16 00:00:00 20 0 Calma 9 Oeste 0 -- -- 84
2020-11-15 23:00:00 20.3 4 Noroeste 7 Noroeste 0 -- -- 82
2020-11-15 22:00:00 21.2 6 Noroeste 10 Noroeste 0 -- -- 80
2020-11-15 21:00:00 22.2 7 Noroeste 13 Norte 0 -- -- 78
2020-11-15 20:00:00 22.7 9 Noroeste 15 Noroeste 0 -- -- 80
2020-11-15 19:00:00 23 7 Noroeste 14 Norte 0 -- -- 79
2020-11-15 18:00:00 23.7 6 Norte 13 Norte 0 -- -- 72
2020-11-15 17:00:00 24.1 8 Norte 21 Norte 0 -- -- 72
2020-11-15 16:00:00 25.5 11 Norte 19 Norte 0 -- -- 66
2020-11-15 15:00:00 25.6 11 Nordeste 17 Norte 0 -- -- 67
2020-11-15 14:00:00 25.6 10 Nordeste 16 Norte 0 -- -- 68
2020-11-15 13:00:00 24.8 8 Este 21 Norte 0 -- -- 78
2020-11-15 12:00:00 26.2 14 Norte 22 Norte 0 -- -- 62
2020-11-15 11:00:00 26.1 11 Norte 21 Norte 0 -- -- 58
2020-11-15 10:00:00 24.8 8 Norte 13 Norte 0 -- -- 71
2020-11-15 09:00:00 21.7 2 Norte 10 Oeste 0 -- -- 80
2020-11-15 08:00:00 19 9 Oeste 13 Oeste 0 -- -- 84
2020-11-15 07:00:00 18.3 9 Oeste 11 Oeste 0 -- -- 84
2020-11-15 06:00:00 18.7 7 Oeste 11 Noroeste 0 -- -- 80
2020-11-15 05:00:00 18.7 3 Sudoeste 9 Sudoeste 0 -- -- 80
2020-11-15 04:00:00 20.8 6 Oeste 10 Noroeste 0 -- -- 81
2020-11-15 03:00:00 21 4 Oeste 10 Noroeste 0 -- -- 81
2020-11-15 02:00:00 22.2 7 Oeste 16 Noroeste 0 -- -- 80
2020-11-15 01:00:00 22.5 7 Noroeste 15 Noroeste 0 -- -- 73
2020-11-15 00:00:00 21.6 4 Noroeste 9 Noroeste 0 -- -- 68
2020-11-14 23:00:00 21.9 3 Sur 9 Oeste 0 -- -- 69
2020-11-14 22:00:00 22.2 5 Noroeste 9 Noroeste 0 -- -- 73
2020-11-14 21:00:00 22.4 6 Noroeste 10 Noroeste 0 -- -- 72
2020-11-14 20:00:00 22.5 4 Noroeste 8 Norte 0 -- -- 76
2020-11-14 19:00:00 23.2 3 Noroeste 12 Norte 0 -- -- 72
2020-11-14 18:00:00 24 4 Norte 9 Norte 0 -- -- 64
2020-11-14 17:00:00 24.8 5 Norte 14 Norte 0 -- -- 65
2020-11-14 16:00:00 24.6 10 Norte 19 Norte 0 -- -- 67
2020-11-14 15:00:00 25.6 11 Norte 25 Nordeste 0 -- -- 62
2020-11-14 14:00:00 27.1 9 Sur 26 Oeste 0 -- -- 47
2020-11-14 13:00:00 24.4 10 Sur 24 Sur 0 -- -- 64
2020-11-14 12:00:00 23.7 10 Sur 22 Sur 0 -- -- 73
2020-11-14 11:00:00 24.1 10 Sur 24 Sur 0 -- -- 69
2020-11-14 10:00:00 23.5 10 Sur 23 Sur 0 -- -- 66
2020-11-14 09:00:00 23.7 16 Sur 27 Sur 0 -- -- 61
2020-11-14 08:00:00 23.4 9 Sur 21 Sur 0 -- -- 57
2020-11-14 07:00:00 24.3 10 Sur 24 Sudoeste 0 -- -- 52
2020-11-14 06:00:00 24.5 16 Sudoeste 27 Sur 0 -- -- 53
2020-11-14 05:00:00 24.3 10 Sur 21 Sudoeste 0 -- -- 53
2020-11-14 04:00:00 24 10 Sur 17 Sur 0 -- -- 53
2020-11-14 03:00:00 23.9 10 Sur 17 Sur 0 -- -- 56
2020-11-14 02:00:00 24.1 8 Sur 16 Sur 0 -- -- 49
2020-11-14 01:00:00 23.6 4 Sur 10 Sur 0 -- -- 53
2020-11-14 00:00:00 23 2 Sudoeste 9 Sur 0 -- -- 58
2020-11-13 23:00:00 24.1 6 Sur 20 Sudoeste 0 -- -- 54
2020-11-13 22:00:00 23.2 4 Sur 13 Sudoeste 0 -- -- 64
2020-11-13 21:00:00 23.4 3 Sur 13 Sudoeste 0 -- -- 46
2020-11-13 20:00:00 23.4 5 Sur 17 Sur 0 -- -- 54
2020-11-13 19:00:00 23.2 8 Sur 18 Sudoeste 0 -- -- 54
2020-11-13 18:00:00 23.1 8 Sur 15 Sudoeste 0 -- -- 56
2020-11-13 17:00:00 23.5 5 Sur 13 Sudeste 0 -- -- 53
2020-11-13 16:00:00 23.7 5 Sur 12 Sudeste 0 -- -- 56
2020-11-13 15:00:00 23.8 5 Sur 14 Sudeste 0 -- -- 49
2020-11-13 14:00:00 23.9 6 Sur 16 Sur 0 -- -- 54
2020-11-13 13:00:00 23.3 8 Sur 15 Sudoeste 0 -- -- 59
2020-11-13 12:00:00 22.9 7 Sur 19 Sudoeste 0 -- -- 64
2020-11-13 11:00:00 22.1 6 Sur 17 Sur 0 -- -- 79
2020-11-13 10:00:00 21.7 5 Sur 11 Sur 0 -- -- 83
2020-11-13 09:00:00 21.3 4 Sur 10 Sudoeste 0 -- -- 85
2020-11-13 08:00:00 20.7 5 Sur 10 Sur 0 -- -- 86
2020-11-13 07:00:00 20.6 4 Sudoeste 11 Sudoeste 0 -- -- 87
2020-11-13 06:00:00 20 3 Sur 6 Sur 0 -- -- 89
2020-11-13 05:00:00 19.5 2 Sur 5 Sudoeste 0 -- -- 89
2020-11-13 04:00:00 19 2 Oeste 7 Oeste 0 -- -- 88
2020-11-13 03:00:00 19.5 3 Oeste 6 Oeste 0 -- -- 87
2020-11-13 02:00:00 20.4 0 Calma 7 Nordeste 0 -- -- 84
2020-11-13 01:00:00 21.2 5 Nordeste 10 Nordeste 0 -- -- 84
2020-11-13 00:00:00 21.4 6 Nordeste 11 Nordeste 0 -- -- 84
2020-11-12 23:00:00 21.4 7 Norte 13 Norte 0 -- -- 85
2020-11-12 22:00:00 21.4 7 Norte 13 Nordeste 0 -- -- 83
2020-11-12 21:00:00 21.6 6 Norte 12 Norte 0 -- -- 82
2020-11-12 20:00:00 21.7 6 Norte 14 Norte 0 -- -- 81
2020-11-12 19:00:00 21.7 7 Norte 12 Norte 0 -- -- 81
2020-11-12 18:00:00 21.9 7 Norte 14 Nordeste 0 -- -- 79
2020-11-12 17:00:00 22.4 9 Nordeste 14 Nordeste 0 -- -- 77
2020-11-12 16:00:00 22.7 9 Este 15 Este 0 -- -- 74
2020-11-12 15:00:00 23.5 9 Nordeste 18 Norte 0 -- -- 72
2020-11-12 14:00:00 22.9 6 Este 10 Este 0 -- -- 73
2020-11-12 13:00:00 22.6 6 Este 11 Nordeste 0 -- -- 75
2020-11-12 12:00:00 22.5 6 Este 9 Este 0 -- -- 74
2020-11-12 11:00:00 22.4 7 Este 10 Este 0 -- -- 74
2020-11-12 10:00:00 21.9 4 Norte 9 Norte 0 -- -- 75
2020-11-12 09:00:00 20.6 3 Noroeste 10 Oeste 0 -- -- 77
2020-11-12 08:00:00 19.2 5 Oeste 12 Oeste 0 -- -- 80
2020-11-12 07:00:00 18.8 8 Oeste 10 Oeste 0 -- -- 82
2020-11-12 06:00:00 19.3 4 Noroeste 11 Noroeste 0 -- -- 80
2020-11-12 05:00:00 19.6 5 Noroeste 9 Noroeste 0 -- -- 79
2020-11-12 04:00:00 19.9 4 Oeste 11 Noroeste 0 -- -- 78
2020-11-12 03:00:00 20.4 7 Noroeste 16 Norte 0 -- -- 76
2020-11-12 02:00:00 20.7 8 Norte 16 Norte 0 -- -- 75
2020-11-12 01:00:00 20.8 10 Norte 23 Norte 0 -- -- 74
2020-11-12 00:00:00 20.9 10 Norte 23 Noroeste 0 -- -- 73
2020-11-11 23:00:00 20.9 10 Norte 27 Norte 0 -- -- 75
2020-11-11 22:00:00 21.1 13 Norte 27 Norte 0 -- -- 73
2020-11-11 21:00:00 21.1 15 Norte 25 Norte 0 -- -- 73
2020-11-11 20:00:00 21.2 15 Norte 26 Norte 0 -- -- 74
2020-11-11 19:00:00 21.3 13 Norte 23 Norte 0 -- -- 75
2020-11-11 18:00:00 21.5 13 Norte 23 Norte 0 -- -- 73
2020-11-11 17:00:00 21.9 10 Norte 24 Norte 0 -- -- 72
2020-11-11 16:00:00 22.2 13 Norte 22 Nordeste 0 -- -- 72
2020-11-11 15:00:00 22.4 13 Nordeste 22 Nordeste 0 -- -- 69
2020-11-11 14:00:00 22.8 11 Nordeste 22 Nordeste 0 -- -- 68
2020-11-11 13:00:00 22.6 14 Nordeste 20 Norte 0 -- -- 69
2020-11-11 12:00:00 22.5 15 Nordeste 21 Norte 0 -- -- 69
2020-11-11 11:00:00 22.5 11 Nordeste 19 Nordeste 0 -- -- 69
2020-11-11 10:00:00 21.6 10 Norte 17 Nordeste 0 -- -- 72
2020-11-11 09:00:00 20.9 10 Nordeste 17 Norte 0 -- -- 74
2020-11-11 08:00:00 20.4 8 Norte 14 Norte 0 -- -- 77
2020-11-11 07:00:00 20 5 Norte 15 Nordeste 0 -- -- 77
2020-11-11 06:00:00 20.3 8 Norte 16 Nordeste 0 -- -- 77
2020-11-11 05:00:00 20.3 7 Norte 15 Norte 0 -- -- 76
2020-11-11 04:00:00 20.5 8 Norte 19 Nordeste 0 -- -- 76
2020-11-11 03:00:00 20.7 10 Norte 17 Norte 0 -- -- 75
2020-11-11 02:00:00 20.8 8 Norte 18 Nordeste 0 -- -- 75
2020-11-11 01:00:00 20.9 11 Norte 18 Nordeste 0 -- -- 75
2020-11-11 00:00:00 21 9 Norte 16 Nordeste 0 -- -- 74
2020-11-10 23:00:00 21.1 10 Nordeste 17 Nordeste 0 -- -- 74
2020-11-10 22:00:00 20.9 7 Norte 14 Norte 0 -- -- 74
2020-11-10 21:00:00 21 8 Norte 15 Norte 0 -- -- 73
2020-11-10 20:00:00 21.1 6 Norte 14 Nordeste 0 -- -- 71
2020-11-10 19:00:00 21.3 8 Norte 15 Nordeste 0 -- -- 71
2020-11-10 18:00:00 21.6 9 Nordeste 15 Norte 0 -- -- 66
2020-11-10 17:00:00 22.2 10 Nordeste 19 Este 0 -- -- 63
2020-11-10 16:00:00 22.7 10 Nordeste 19 Nordeste 0 -- -- 61
2020-11-10 15:00:00 23.1 10 Norte 18 Norte 0 -- -- 59
2020-11-10 14:00:00 22.9 11 Nordeste 20 Norte 0 -- -- 57
2020-11-10 13:00:00 23 13 Nordeste 24 Nordeste 0 -- -- 56
2020-11-10 12:00:00 22.3 15 Nordeste 24 Nordeste 0 -- -- 61
2020-11-10 11:00:00 22.4 14 Nordeste 25 Nordeste 0 -- -- 65
2020-11-10 10:00:00 22.5 15 Nordeste 26 Este 0 -- -- 64
2020-11-10 09:00:00 21.4 15 Nordeste 23 Nordeste 0 -- -- 70
2020-11-10 08:00:00 20.6 13 Nordeste 23 Norte 0 -- -- 70
2020-11-10 07:00:00 20.5 13 Nordeste 23 Norte 0 -- -- 71
2020-11-10 06:00:00 20.5 10 Nordeste 22 Nordeste 0 -- -- 71
2020-11-10 05:00:00 20.6 14 Nordeste 22 Nordeste 0 -- -- 75
2020-11-10 04:00:00 20.6 12 Nordeste 28 Nordeste 0 -- -- 76
2020-11-10 03:00:00 20.8 15 Nordeste 26 Norte 0 -- -- 75
2020-11-10 02:00:00 20.8 13 Nordeste 21 Nordeste 0 -- -- 74
2020-11-10 01:00:00 20.9 15 Nordeste 27 Norte 0 -- -- 73
2020-11-10 00:00:00 21 13 Nordeste 27 Nordeste 0 -- -- 74
2020-11-09 23:00:00 21.2 14 Nordeste 26 Nordeste 0 -- -- 75
2020-11-09 22:00:00 21.2 15 Nordeste 25 Norte 0 -- -- 74
2020-11-09 21:00:00 21.2 14 Nordeste 23 Nordeste 0 -- -- 73
2020-11-09 20:00:00 21.3 12 Norte 25 Norte 0 -- -- 73
2020-11-09 19:00:00 21.5 12 Norte 23 Nordeste 0 -- -- 73
2020-11-09 18:00:00 21.7 12 Norte 23 Norte 0 -- -- 69
2020-11-09 17:00:00 22.6 11 Norte 28 Norte 0 -- -- 66
2020-11-09 16:00:00 22.9 14 Norte 26 Norte 0 -- -- 65
2020-11-09 15:00:00 23.1 15 Nordeste 25 Nordeste 0 -- -- 62
2020-11-09 14:00:00 23.2 15 Norte 23 Norte 0 -- -- 63
2020-11-09 13:00:00 23.3 13 Norte 23 Norte 0 -- -- 64
2020-11-09 12:00:00 23 15 Norte 24 Nordeste 0 -- -- 62
2020-11-09 11:00:00 22.7 14 Norte 22 Nordeste 0 -- -- 63
2020-11-09 10:00:00 22.5 13 Nordeste 21 Nordeste 0 -- -- 65
2020-11-09 09:00:00 22 9 Norte 21 Norte 0 -- -- 67
2020-11-09 08:00:00 19.8 8 Noroeste 14 Noroeste 0 -- -- 73
2020-11-09 07:00:00 18.6 10 Noroeste 15 Noroeste 0 -- -- 74
2020-11-09 06:00:00 19.1 12 Noroeste 17 Noroeste 0 -- -- 73
2020-11-09 05:00:00 18 10 Noroeste 15 Oeste 0 -- -- 77
2020-11-09 04:00:00 17.8 12 Noroeste 15 Noroeste 0 -- -- 77
2020-11-09 03:00:00 17.7 10 Noroeste 12 Noroeste 0 -- -- 77
2020-11-09 02:00:00 17.6 8 Noroeste 12 Noroeste 0 -- -- 78
2020-11-09 01:00:00 18.3 10 Noroeste 13 Noroeste 0 -- -- 77
2020-11-09 00:00:00 18.4 8 Noroeste 14 Noroeste 0 -- -- 74
2020-11-08 23:00:00 18.4 9 Oeste 12 Noroeste 0 -- -- 76
2020-11-08 22:00:00 19.3 8 Noroeste 13 Noroeste 0 -- -- 76
2020-11-08 21:00:00 20.5 8 Noroeste 15 Norte 0 -- -- 73
2020-11-08 20:00:00 20.8 7 Noroeste 16 Norte 0 -- -- 76
2020-11-08 19:00:00 21.4 9 Norte 21 Noroeste 0 -- -- 69
2020-11-08 18:00:00 21.5 9 Nordeste 17 Norte 0 -- -- 72
2020-11-08 17:00:00 21.5 8 Norte 18 Norte 0 -- -- 70
2020-11-08 16:00:00 21.7 10 Norte 17 Nordeste 0 -- -- 70
2020-11-08 15:00:00 21.9 10 Nordeste 18 Nordeste 0 -- -- 67
2020-11-08 14:00:00 22.2 10 Norte 18 Nordeste 0 -- -- 67
2020-11-08 13:00:00 23.3 12 Nordeste 21 Nordeste 0 -- -- 61
2020-11-08 12:00:00 23.2 13 Norte 20 Este 0 -- -- 64
2020-11-08 11:00:00 23 12 Nordeste 18 Nordeste 0 -- -- 64
2020-11-08 10:00:00 22.4 9 Norte 15 Nordeste 0 -- -- 69
2020-11-08 09:00:00 21 6 Norte 10 Noroeste 0 -- -- 73
2020-11-08 08:00:00 16.9 9 Oeste 12 Oeste 0 -- -- 76
2020-11-08 07:00:00 16 9 Oeste 13 Oeste 0 -- -- 75
2020-11-08 06:00:00 16.3 9 Oeste 14 Oeste 0 -- -- 74
2020-11-08 05:00:00 16.4 10 Oeste 13 Oeste 0 -- -- 77
2020-11-08 04:00:00 16.5 10 Oeste 13 Oeste 0 -- -- 76
2020-11-08 03:00:00 17.2 9 Oeste 14 Oeste 0 -- -- 76
2020-11-08 02:00:00 17.2 10 Oeste 13 Oeste 0 -- -- 77
2020-11-08 01:00:00 17.5 8 Oeste 13 Oeste 0 -- -- 78
2020-11-08 00:00:00 17.9 9 Oeste 12 Oeste 0 -- -- 80
2020-11-07 23:00:00 18.3 6 Oeste 9 Oeste 0 -- -- 83
2020-11-07 22:00:00 18.8 0 Calma 4 Oeste 0 -- -- 81
2020-11-07 21:00:00 20.3 0 Calma 4 Sur 0 -- -- 76
2020-11-07 20:00:00 21.4 2 Sudeste 8 Sudeste 0 -- -- 74
2020-11-07 19:00:00 21.6 3 Sudeste 10 Este 0 -- -- 74
2020-11-07 18:00:00 21.6 6 Este 13 Este 0 -- -- 74
2020-11-07 17:00:00 21.9 9 Este 16 Este 0 -- -- 74
2020-11-07 16:00:00 22.5 8 Este 16 Sudeste 0 -- -- 72
2020-11-07 15:00:00 22.9 7 Este 17 Este 0 -- -- 70
2020-11-07 14:00:00 22.9 10 Este 15 Este 0 -- -- 70
2020-11-07 13:00:00 23.4 9 Este 14 Este 0 -- -- 65
2020-11-07 12:00:00 23.5 8 Este 13 Este 0 -- -- 63
2020-11-07 11:00:00 23.6 5 Sudeste 9 Sudeste 0 -- -- 63
2020-11-07 10:00:00 23.2 4 Este 9 Este 0 -- -- 63
2020-11-07 09:00:00 21.2 4 Noroeste 13 Oeste 0 -- -- 68
2020-11-07 08:00:00 18 8 Oeste 14 Oeste 0 -- -- 75
2020-11-07 07:00:00 17.2 10 Oeste 14 Oeste 0 -- -- 77
2020-11-07 06:00:00 17.2 8 Oeste 12 Noroeste 0 -- -- 76
2020-11-07 05:00:00 17.6 9 Oeste 14 Oeste 0 -- -- 76
2020-11-07 04:00:00 17.9 8 Oeste 13 Oeste 0 -- -- 75
2020-11-07 03:00:00 18.2 4 Oeste 8 Oeste 0 -- -- 74
2020-11-07 02:00:00 18.8 7 Oeste 11 Oeste 0 -- -- 73
2020-11-07 01:00:00 19.3 8 Oeste 10 Oeste 0 -- -- 74
2020-11-07 00:00:00 19.5 4 Oeste 8 Oeste 0 -- -- 76
2020-11-06 23:00:00 20.9 3 Oeste 6 Oeste 0 -- -- 70
2020-11-06 22:00:00 21.9 4 Norte 12 Nordeste 0 -- -- 64
2020-11-06 21:00:00 21.9 6 Norte 18 Norte 0 -- -- 64
2020-11-06 20:00:00 21.9 7 Norte 19 Nordeste 0 -- -- 64
2020-11-06 19:00:00 21.7 11 Norte 21 Norte 0 -- -- 66
2020-11-06 18:00:00 22.2 13 Norte 39 Nordeste 0 -- -- 68
2020-11-06 17:00:00 22.3 22 Este 39 Este 0 -- -- 74
2020-11-06 16:00:00 23.2 31 Nordeste 41 Nordeste 0 -- -- 70
2020-11-06 15:00:00 24.1 24 Nordeste 35 Nordeste 0 -- -- 64
2020-11-06 14:00:00 24.5 18 Este 25 Nordeste 0 -- -- 61
2020-11-06 13:00:00 25.1 16 Este 29 Nordeste 0 -- -- 54
2020-11-06 12:00:00 25 15 Nordeste 23 Nordeste 0 -- -- 56
2020-11-06 11:00:00 24.7 11 Norte 26 Sudoeste 0 -- -- 54
2020-11-06 10:00:00 24.3 15 Sudoeste 34 Sur 0 -- -- 55
2020-11-06 09:00:00 22.9 6 Sudoeste 29 Sudoeste 0 -- -- 59
2020-11-06 08:00:00 21.1 17 Sudoeste 30 Sudoeste 0 -- -- 64
2020-11-06 07:00:00 20.2 16 Sudoeste 29 Sur 0 -- -- 67
2020-11-06 06:00:00 18.8 3 Noroeste 20 Sur 0 -- -- 71
2020-11-06 05:00:00 18.6 7 Sudoeste 17 Sur 0 -- -- 71
2020-11-06 04:00:00 17.8 2 Sudoeste 9 Sur 0 -- -- 71
2020-11-06 03:00:00 18.1 5 Sudoeste 14 Sudoeste 0 -- -- 70
2020-11-06 02:00:00 18.5 5 Oeste 13 Oeste 0 -- -- 66
2020-11-06 01:00:00 17.2 5 Sudoeste 10 Oeste 0 -- -- 68
2020-11-06 00:00:00 17.8 5 Oeste 14 Sudoeste 0 -- -- 77
2020-11-05 23:00:00 18.2 4 Sudoeste 12 Sudoeste 0 -- -- 78
2020-11-05 22:00:00 18.2 8 Sudoeste 11 Oeste 0 -- -- 76
2020-11-05 21:00:00 18.7 7 Oeste 17 Oeste 0 -- -- 74
2020-11-05 20:00:00 19.2 11 Oeste 17 Oeste 0 -- -- 72
2020-11-05 19:00:00 20.3 8 Oeste 19 Sudoeste 0 -- -- 69
2020-11-05 18:00:00 21.7 8 Sur 27 Sur 0 -- -- 68
2020-11-05 17:00:00 22.1 12 Sur 29 Sur 0 -- -- 70
2020-11-05 16:00:00 22.9 12 Sur 36 Sudeste 0 -- -- 66
2020-11-05 15:00:00 22.2 13 Sur 30 Sur 0 -- -- 70
2020-11-05 14:00:00 21.3 10 Sudeste 25 Sudeste 0 -- -- 69
2020-11-05 13:00:00 22 7 Sudeste 17 Sudeste 0 -- -- 62
2020-11-05 12:00:00 21.4 6 Sudeste 15 Este 0 -- -- 65
2020-11-05 11:00:00 21.4 8 Nordeste 13 Nordeste 0 -- -- 64
2020-11-05 10:00:00 19.9 0 Calma 4 Sudoeste 0 -- -- 66
2020-11-05 09:00:00 17.9 2 Oeste 4 Norte 0 -- -- 73
2020-11-05 08:00:00 16 3 Noroeste 7 Oeste 0 -- -- 80
2020-11-05 07:00:00 16.5 0 Calma 6 Noroeste 0 -- -- 82
2020-11-05 06:00:00 16.8 5 Noroeste 9 Noroeste 0 -- -- 83
2020-11-05 05:00:00 16.7 8 Noroeste 11 Oeste 0 -- -- 83
2020-11-05 04:00:00 17.4 7 Oeste 15 Noroeste 0 -- -- 81
2020-11-05 03:00:00 17.9 9 Noroeste 16 Oeste 0 -- -- 80
2020-11-05 02:00:00 18.2 6 Noroeste 21 Noroeste 0 -- -- 82
2020-11-05 01:00:00 17.8 9 Noroeste 19 Noroeste 0 -- -- 85
2020-11-05 00:00:00 18.3 8 Noroeste 23 Noroeste 0 -- -- 85
2020-11-04 23:00:00 18.5 9 Noroeste 23 Noroeste 2 -- -- 85
2020-11-04 22:00:00 20 10 Norte 24 Norte 0 -- -- 74
2020-11-04 21:00:00 20 11 Norte 23 Nordeste 0 -- -- 75
2020-11-04 20:00:00 20 13 Norte 35 Nordeste 0 -- -- 77
2020-11-04 19:00:00 20.2 19 Nordeste 32 Norte 0.2 -- -- 79
2020-11-04 18:00:00 19.8 14 Norte 39 Nordeste 3.6 -- -- 81
2020-11-04 17:00:00 20.3 23 Nordeste 35 Norte 0.6 -- -- 82
2020-11-04 16:00:00 21.4 14 Nordeste 27 Norte 0 -- -- 77
2020-11-04 15:00:00 22.4 14 Norte 28 Nordeste 0 -- -- 71
2020-11-04 14:00:00 22.7 15 Norte 27 Norte 0 -- -- 69
2020-11-04 13:00:00 23.2 16 Nordeste 26 Nordeste 0 -- -- 66
2020-11-04 12:00:00 22.7 15 Norte 28 Nordeste 0 -- -- 67
2020-11-04 11:00:00 22.4 17 Nordeste 28 Norte 0 -- -- 67
2020-11-04 10:00:00 22.7 21 Nordeste 31 Nordeste 0 -- -- 68
2020-11-04 09:00:00 21.8 18 Nordeste 25 Nordeste 0 -- -- 74
2020-11-04 08:00:00 21.3 12 Norte 26 Norte 0 -- -- 76
2020-11-04 07:00:00 21.4 15 Norte 32 Nordeste 0 -- -- 73
2020-11-04 06:00:00 21.4 18 Nordeste 37 Norte 0 -- -- 75
2020-11-04 05:00:00 21.5 14 Norte 33 Norte 0 -- -- 73
2020-11-04 04:00:00 21.5 19 Nordeste 27 Nordeste 0 -- -- 75
2020-11-04 03:00:00 21.5 14 Norte 30 Nordeste 0 -- -- 74
2020-11-04 02:00:00 21.3 14 Norte 31 Norte 0 -- -- 75
2020-11-04 01:00:00 21.3 13 Norte 28 Norte 0 -- -- 75
2020-11-04 00:00:00 21.4 12 Norte 29 Nordeste 0 -- -- 77
2020-11-03 23:00:00 21.5 14 Norte 30 Norte 0 -- -- 76
2020-11-03 22:00:00 21.7 16 Norte 30 Norte 0 -- -- 75
2020-11-03 21:00:00 21.8 17 Nordeste 30 Norte 0 -- -- 76
2020-11-03 20:00:00 21.9 15 Norte 28 Nordeste 0 -- -- 75
2020-11-03 19:00:00 22 13 Norte 28 Norte 0 -- -- 73
2020-11-03 18:00:00 22.2 13 Norte 28 Norte 0 -- -- 72
2020-11-03 17:00:00 22.7 17 Norte 32 Norte 0 -- -- 70
2020-11-03 16:00:00 23.9 18 Norte 32 Noroeste 0 -- -- 65
2020-11-03 15:00:00 24 18 Norte 32 Norte 0 -- -- 63
2020-11-03 14:00:00 24.4 16 Norte 28 Nordeste 0 -- -- 64
2020-11-03 13:00:00 24.3 17 Norte 29 Norte 0 -- -- 65
2020-11-03 12:00:00 24 19 Norte 31 Norte 0 -- -- 66
2020-11-03 11:00:00 23.7 17 Norte 30 Norte 0 -- -- 68
2020-11-03 10:00:00 23.4 15 Norte 28 Norte 0 -- -- 67
2020-11-03 09:00:00 22.4 15 Norte 26 Norte 0 -- -- 70
2020-11-03 08:00:00 21.8 13 Norte 27 Noroeste 0 -- -- 73
2020-11-03 07:00:00 21.1 14 Norte 28 Norte 0 -- -- 75
2020-11-03 06:00:00 20.8 12 Norte 25 Noroeste 0 -- -- 75
2020-11-03 05:00:00 20.8 13 Noroeste 25 Noroeste 0 -- -- 75
2020-11-03 04:00:00 20.7 10 Noroeste 22 Noroeste 0 -- -- 76
2020-11-03 03:00:00 20.8 10 Noroeste 27 Norte 0 -- -- 75
2020-11-03 02:00:00 21.4 12 Norte 25 Noroeste 0 -- -- 74
2020-11-03 01:00:00 21.3 9 Norte 22 Noroeste 0 -- -- 74
2020-11-03 00:00:00 21 10 Noroeste 26 Norte 0 -- -- 75
2020-11-02 23:00:00 21.5 12 Norte 23 Norte 0 -- -- 75
2020-11-02 22:00:00 21.7 13 Norte 27 Norte 0 -- -- 74
2020-11-02 21:00:00 21.9 15 Norte 30 Norte 0 -- -- 74
2020-11-02 20:00:00 22 18 Norte 28 Norte 0 -- -- 73
2020-11-02 19:00:00 22.4 19 Norte 31 Norte 0 -- -- 72
2020-11-02 18:00:00 22.6 17 Norte 31 Norte 0 -- -- 72
2020-11-02 17:00:00 23.6 18 Norte 33 Norte 0 -- -- 68
2020-11-02 16:00:00 24 20 Norte 33 Norte 0 -- -- 67
2020-11-02 15:00:00 24.2 20 Norte 32 Norte 0 -- -- 66
2020-11-02 14:00:00 24.2 20 Norte 34 Norte 0 -- -- 66
2020-11-02 13:00:00 24.2 18 Norte 33 Norte 0 -- -- 65
2020-11-02 12:00:00 23.3 18 Norte 30 Norte 0 -- -- 69
2020-11-02 11:00:00 23.2 17 Norte 30 Norte 0 -- -- 70
2020-11-02 10:00:00 22.3 15 Norte 31 Norte 0 -- -- 73
2020-11-02 09:00:00 21.7 14 Norte 25 Noroeste 0 -- -- 73
2020-11-02 08:00:00 20.6 10 Noroeste 24 Norte 0 -- -- 76
2020-11-02 07:00:00 20.6 13 Noroeste 30 Noroeste 0 -- -- 76
2020-11-02 06:00:00 20 11 Noroeste 20 Norte 0 -- -- 75
2020-11-02 05:00:00 20.7 10 Norte 26 Noroeste 0 -- -- 75
2020-11-02 04:00:00 20.8 15 Noroeste 27 Noroeste 0 -- -- 73
2020-11-02 03:00:00 20.9 14 Noroeste 25 Noroeste 0 -- -- 72
2020-11-02 02:00:00 20.7 13 Noroeste 27 Noroeste 0 -- -- 75
2020-11-02 01:00:00 21 13 Norte 27 Noroeste 0 -- -- 75
2020-11-02 00:00:00 21.4 12 Norte 27 Norte 0 -- -- 74